createdAt,value
2022-11-06T00:00:20.826Z,46.60
2022-11-06T00:02:22.492Z,46.50
2022-11-06T00:04:24.234Z,46.50
2022-11-06T00:06:44.686Z,46.40
2022-11-06T00:08:46.281Z,46.40
2022-11-06T00:10:47.859Z,46.40
2022-11-06T00:12:49.769Z,46.40
2022-11-06T00:14:51.363Z,46.40
2022-11-06T00:16:53.235Z,46.50
2022-11-06T00:18:55.227Z,46.50
2022-11-06T00:20:56.796Z,46.60
2022-11-06T00:22:58.446Z,46.60
2022-11-06T00:25:00.719Z,46.60
2022-11-06T00:27:02.286Z,46.70
2022-11-06T00:29:04.871Z,46.70
2022-11-06T00:31:09.106Z,46.60
2022-11-06T00:33:10.895Z,46.60
2022-11-06T00:35:12.492Z,46.60
2022-11-06T00:37:14.608Z,46.60
2022-11-06T00:39:16.265Z,46.50
2022-11-06T00:41:17.855Z,46.50
2022-11-06T00:43:19.445Z,46.40
2022-11-06T00:45:21.154Z,46.40
2022-11-06T00:47:22.911Z,46.40
2022-11-06T00:49:24.515Z,46.40
2022-11-06T00:51:39.225Z,46.40
2022-11-06T00:53:41.654Z,46.40
2022-11-06T00:55:43.243Z,46.40
2022-11-06T00:57:44.829Z,46.30
2022-11-06T00:59:46.439Z,46.30
2022-11-06T01:01:48.124Z,46.30
2022-11-06T01:03:56.481Z,46.30
2022-11-06T01:06:05.337Z,46.40
2022-11-06T01:08:06.974Z,46.30
2022-11-06T01:10:09.027Z,46.20
2022-11-06T01:12:13.225Z,46.20
2022-11-06T01:14:17.494Z,46.20
2022-11-06T01:16:20.006Z,46.10
2022-11-06T01:18:21.611Z,46.10
2022-11-06T01:20:23.219Z,46.10
2022-11-06T01:22:24.862Z,46.10
2022-11-06T01:24:28.444Z,46.00
2022-11-06T01:26:38.361Z,46.70
2022-11-06T01:28:42.412Z,46.10
2022-11-06T01:30:44.003Z,46.10
2022-11-06T01:32:45.629Z,46.80
2022-11-06T01:34:49.745Z,46.10
2022-11-06T01:36:51.346Z,46.10
2022-11-06T01:38:54.904Z,46.10
2022-11-06T01:40:56.605Z,46.10
2022-11-06T01:42:59.361Z,46.00
2022-11-06T01:45:35.226Z,46.00
2022-11-06T01:47:36.951Z,45.90
2022-11-06T01:49:38.665Z,45.90
2022-11-06T01:52:02.414Z,45.90
2022-11-06T01:54:06.751Z,45.90
2022-11-06T01:56:11.875Z,45.90
2022-11-06T01:58:17.970Z,45.90
2022-11-06T02:00:20.162Z,45.80
2022-11-06T02:02:22.648Z,45.90
2022-11-06T02:04:37.683Z,45.90
2022-11-06T02:06:39.302Z,45.90
2022-11-06T02:08:40.978Z,45.90
2022-11-06T02:10:43.418Z,45.90
2022-11-06T02:13:12.058Z,45.90
2022-11-06T02:15:24.443Z,45.90
2022-11-06T02:17:47.647Z,45.80
2022-11-06T02:20:25.858Z,45.80
2022-11-06T02:23:10.352Z,45.80
2022-11-06T02:25:22.691Z,45.70
2022-11-06T02:27:26.741Z,46.30
2022-11-06T02:29:50.817Z,45.70
2022-11-06T02:31:55.843Z,45.70
2022-11-06T02:34:05.363Z,45.60
2022-11-06T02:36:11.617Z,45.60
2022-11-06T02:38:18.873Z,45.60
2022-11-06T02:40:23.587Z,45.70
2022-11-06T02:42:28.410Z,45.60
2022-11-06T02:44:33.150Z,45.70
2022-11-06T02:46:53.860Z,45.60
2022-11-06T02:49:09.248Z,45.60
2022-11-06T02:51:14.689Z,45.60
2022-11-06T02:53:20.107Z,45.50
2022-11-06T02:55:28.817Z,45.60
2022-11-06T02:57:35.593Z,45.60
2022-11-06T02:59:50.181Z,45.70
2022-11-06T03:01:59.951Z,45.70
2022-11-06T03:04:06.915Z,45.70
2022-11-06T03:06:17.739Z,45.50
2022-11-06T03:08:35.429Z,45.60
2022-11-06T03:10:55.526Z,45.50
2022-11-06T03:13:15.311Z,45.50
2022-11-06T03:15:41.142Z,45.50
2022-11-06T03:18:09.905Z,45.50
2022-11-06T03:20:36.790Z,45.50
2022-11-06T03:22:41.439Z,45.50
2022-11-06T03:25:06.915Z,45.40
2022-11-06T03:27:32.247Z,45.50
2022-11-06T03:29:45.811Z,45.40
2022-11-06T03:32:31.643Z,45.40
2022-11-06T03:34:41.627Z,45.30
2022-11-06T03:36:49.103Z,45.30
2022-11-06T03:38:55.839Z,45.30
2022-11-06T03:41:23.898Z,45.40
2022-11-06T03:43:30.162Z,45.40
2022-11-06T03:45:33.614Z,45.40
2022-11-06T03:47:40.956Z,45.40
2022-11-06T03:49:49.458Z,45.40
2022-11-06T03:51:57.236Z,45.40
2022-11-06T03:54:17.924Z,45.30
2022-11-06T03:56:32.479Z,45.30
2022-11-06T03:58:38.540Z,45.30
2022-11-06T04:00:42.447Z,45.30
2022-11-06T04:02:52.303Z,45.40
2022-11-06T04:05:02.575Z,45.40
2022-11-06T04:07:09.485Z,45.30
2022-11-06T04:09:32.908Z,45.30
2022-11-06T04:11:55.154Z,45.40
2022-11-06T04:14:00.814Z,45.40
2022-11-06T04:16:02.866Z,45.40
2022-11-06T04:18:13.478Z,45.40
2022-11-06T04:20:39.403Z,45.50
2022-11-06T04:23:03.653Z,45.60
2022-11-06T04:25:45.422Z,45.40
2022-11-06T04:27:58.919Z,45.30
2022-11-06T04:30:10.849Z,45.20
2022-11-06T04:32:19.786Z,45.10
2022-11-06T04:34:36.761Z,45.20
2022-11-06T04:36:48.642Z,45.20
2022-11-06T04:39:21.072Z,45.10
2022-11-06T04:41:53.256Z,45.10
2022-11-06T04:43:59.077Z,45.00
2022-11-06T04:46:03.289Z,45.00
2022-11-06T04:48:06.451Z,44.80
2022-11-06T04:50:11.569Z,45.10
2022-11-06T04:52:18.013Z,45.20
2022-11-06T04:54:20.242Z,45.20
2022-11-06T04:56:29.200Z,45.00
2022-11-06T04:58:31.038Z,44.90
2022-11-06T05:00:32.750Z,44.90
2022-11-06T05:02:34.384Z,44.80
2022-11-06T05:04:35.997Z,44.80
2022-11-06T05:06:37.724Z,44.80
2022-11-06T05:08:39.529Z,45.20
2022-11-06T05:10:41.898Z,44.90
2022-11-06T05:12:43.521Z,44.90
2022-11-06T05:14:45.161Z,44.80
2022-11-06T05:16:46.775Z,44.70
2022-11-06T05:18:48.376Z,44.60
2022-11-06T05:21:10.015Z,44.60
2022-11-06T05:23:11.618Z,44.60
2022-11-06T05:25:13.197Z,44.60
2022-11-06T05:27:14.967Z,44.60
2022-11-06T05:29:16.554Z,44.60
2022-11-06T05:31:18.177Z,44.60
2022-11-06T05:33:19.877Z,44.60
2022-11-06T05:35:22.008Z,44.70
2022-11-06T05:37:23.607Z,44.80
2022-11-06T05:39:25.291Z,44.80
2022-11-06T05:41:26.923Z,44.80
2022-11-06T05:43:28.905Z,45.00
2022-11-06T05:45:30.531Z,45.00
2022-11-06T05:47:32.189Z,45.00
2022-11-06T05:49:33.835Z,45.00
2022-11-06T05:51:35.805Z,44.90
2022-11-06T05:53:37.762Z,44.90
2022-11-06T05:55:39.371Z,44.80
2022-11-06T05:57:41.208Z,44.90
2022-11-06T05:59:42.903Z,45.20
2022-11-06T06:01:44.622Z,45.20
2022-11-06T06:03:46.379Z,45.10
2022-11-06T06:05:48.482Z,45.10
2022-11-06T06:07:50.086Z,45.10
2022-11-06T06:09:51.687Z,45.10
2022-11-06T06:11:54.341Z,45.00
2022-11-06T06:13:55.938Z,45.10
2022-11-06T06:16:01.251Z,45.20
2022-11-06T06:18:02.857Z,45.00
2022-11-06T06:20:05.757Z,44.40
2022-11-06T06:22:07.441Z,44.00
2022-11-06T06:24:09.278Z,43.60
2022-11-06T06:26:10.895Z,43.30
2022-11-06T06:28:12.745Z,43.30
2022-11-06T06:30:15.753Z,43.30
2022-11-06T06:32:17.356Z,43.30
2022-11-06T06:34:19.179Z,43.30
2022-11-06T06:36:20.771Z,43.30
2022-11-06T06:38:22.713Z,43.30
2022-11-06T06:40:24.318Z,44.00
2022-11-06T06:42:31.250Z,43.30
2022-11-06T06:44:33.176Z,43.40
2022-11-06T06:46:34.830Z,43.00
2022-11-06T06:48:36.730Z,42.90
2022-11-06T06:50:38.400Z,42.70
2022-11-06T06:52:40.013Z,42.70
2022-11-06T06:54:41.634Z,42.60
2022-11-06T06:56:43.226Z,42.50
2022-11-06T06:58:44.912Z,42.40
2022-11-06T07:00:47.119Z,42.40
2022-11-06T07:02:48.754Z,42.40
2022-11-06T07:04:50.351Z,42.30
2022-11-06T07:06:55.202Z,42.00
2022-11-06T07:08:56.828Z,41.80
2022-11-06T07:11:03.434Z,41.70
2022-11-06T07:13:05.914Z,41.80
2022-11-06T07:15:08.340Z,42.00
2022-11-06T07:17:09.964Z,42.00
2022-11-06T07:19:11.537Z,42.30
2022-11-06T07:21:13.588Z,42.70
2022-11-06T07:23:15.260Z,42.70
2022-11-06T07:25:16.895Z,42.40
2022-11-06T07:27:18.519Z,42.80
2022-11-06T07:29:20.211Z,42.70
2022-11-06T07:31:21.826Z,42.20
2022-11-06T07:33:23.454Z,41.90
2022-11-06T07:35:25.088Z,41.90
2022-11-06T07:37:26.685Z,41.90
2022-11-06T07:39:28.284Z,41.70
2022-11-06T07:41:29.956Z,41.70
2022-11-06T07:43:31.687Z,41.50
2022-11-06T07:45:33.651Z,42.30
2022-11-06T07:47:35.536Z,43.20
2022-11-06T07:49:37.116Z,43.80
2022-11-06T07:51:38.713Z,44.00
2022-11-06T07:53:41.204Z,44.30
2022-11-06T07:55:54.109Z,44.50
2022-11-06T07:57:55.774Z,45.10
2022-11-06T07:59:57.370Z,44.70
2022-11-06T08:01:59.059Z,45.40
2022-11-06T08:04:00.725Z,44.80
2022-11-06T08:06:05.170Z,44.80
2022-11-06T08:08:06.949Z,44.80
2022-11-06T08:10:08.871Z,44.90
2022-11-06T08:12:10.473Z,45.00
2022-11-06T08:14:12.092Z,45.00
2022-11-06T08:16:14.882Z,44.90
2022-11-06T08:18:16.900Z,44.90
2022-11-06T08:20:19.418Z,44.80
2022-11-06T08:22:21.026Z,44.80
2022-11-06T08:24:22.644Z,44.80
2022-11-06T08:26:24.715Z,44.80
2022-11-06T08:28:27.192Z,45.00
2022-11-06T08:30:30.123Z,44.90
2022-11-06T08:32:31.717Z,45.10
2022-11-06T08:34:35.407Z,45.00
2022-11-06T08:36:49.247Z,44.90
2022-11-06T08:38:51.359Z,44.90
2022-11-06T08:40:53.997Z,45.00
2022-11-06T08:43:00.157Z,45.20
2022-11-06T08:45:01.924Z,45.10
2022-11-06T08:47:03.782Z,45.30
2022-11-06T08:49:05.397Z,45.70
2022-11-06T08:51:07.232Z,46.00
2022-11-06T08:53:08.987Z,45.70
2022-11-06T08:55:10.682Z,45.90
2022-11-06T08:57:12.341Z,46.10
2022-11-06T08:59:13.964Z,46.00
2022-11-06T09:01:15.868Z,46.20
2022-11-06T09:03:18.197Z,46.20
2022-11-06T09:05:19.906Z,46.40
2022-11-06T09:07:21.710Z,46.40
2022-11-06T09:09:23.411Z,46.50
2022-11-06T09:11:25.199Z,46.50
2022-11-06T09:13:27.122Z,46.60
2022-11-06T09:15:28.756Z,46.60
2022-11-06T09:17:30.361Z,46.70
2022-11-06T09:19:32.350Z,46.80
2022-11-06T09:21:35.569Z,47.00
2022-11-06T09:23:37.458Z,46.90
2022-11-06T09:25:39.071Z,46.80
2022-11-06T09:27:43.761Z,46.70
2022-11-06T09:29:45.486Z,46.80
2022-11-06T09:31:47.069Z,46.90
2022-11-06T09:33:48.726Z,47.30
2022-11-06T09:35:50.369Z,47.00
2022-11-06T09:37:52.691Z,46.80
2022-11-06T09:39:54.298Z,46.90
2022-11-06T09:42:20.246Z,46.70
2022-11-06T09:44:41.314Z,46.70
2022-11-06T09:46:45.557Z,46.70
2022-11-06T09:49:13.106Z,47.30
2022-11-06T09:51:29.903Z,46.60
2022-11-06T09:53:38.757Z,46.50
2022-11-06T09:55:43.745Z,46.50
2022-11-06T09:57:57.004Z,46.30
2022-11-06T10:00:00.710Z,46.30
2022-11-06T10:02:04.490Z,46.10
2022-11-06T10:04:06.438Z,46.10
2022-11-06T10:06:08.087Z,46.10
2022-11-06T10:08:18.846Z,46.10
2022-11-06T10:10:27.512Z,46.00
2022-11-06T10:12:35.418Z,46.00
2022-11-06T10:15:03.693Z,45.90
2022-11-06T10:17:15.169Z,45.90
2022-11-06T10:19:38.058Z,45.80
2022-11-06T10:22:08.086Z,45.80
2022-11-06T10:24:28.651Z,45.80
2022-11-06T10:26:39.802Z,45.70
2022-11-06T10:28:41.297Z,45.70
2022-11-06T10:31:03.353Z,45.80
2022-11-06T10:33:16.985Z,45.70
2022-11-06T10:35:31.174Z,45.70
2022-11-06T10:37:44.586Z,45.70
2022-11-06T10:39:46.918Z,45.70
2022-11-06T10:42:04.840Z,45.70
2022-11-06T10:44:14.237Z,45.70
2022-11-06T10:46:39.316Z,45.70
2022-11-06T10:48:48.199Z,45.70
2022-11-06T10:50:57.793Z,45.80
2022-11-06T10:53:08.806Z,45.70
2022-11-06T10:55:42.839Z,45.70
2022-11-06T10:57:56.875Z,45.60
2022-11-06T10:59:59.043Z,45.70
2022-11-06T11:02:03.363Z,45.60
2022-11-06T11:04:05.250Z,45.60
2022-11-06T11:06:07.455Z,45.60
2022-11-06T11:08:31.008Z,45.50
2022-11-06T11:10:35.575Z,45.50
2022-11-06T11:12:37.574Z,45.70
2022-11-06T11:14:39.151Z,45.50
2022-11-06T11:16:45.917Z,45.50
2022-11-06T11:18:48.458Z,45.50
2022-11-06T11:21:03.485Z,45.50
2022-11-06T11:23:06.593Z,45.50
2022-11-06T11:25:23.915Z,45.50
2022-11-06T11:27:26.148Z,45.40
2022-11-06T11:29:30.831Z,45.50
2022-11-06T11:31:35.617Z,45.40
2022-11-06T11:33:38.824Z,45.40
2022-11-06T11:35:40.542Z,45.40
2022-11-06T11:37:42.234Z,45.40
2022-11-06T11:39:44.669Z,45.40
2022-11-06T11:41:46.317Z,45.40
2022-11-06T11:44:13.905Z,45.40
2022-11-06T11:46:19.092Z,45.40
2022-11-06T11:48:20.774Z,45.40
2022-11-06T11:50:27.656Z,45.40
2022-11-06T11:52:29.489Z,45.40
2022-11-06T11:54:34.244Z,45.40
2022-11-06T11:59:38.362Z,45.30
2022-11-06T12:01:41.436Z,45.30
2022-11-06T12:03:49.959Z,45.30
2022-11-06T12:05:53.680Z,45.30
2022-11-06T12:07:57.622Z,45.30
2022-11-06T12:10:01.177Z,45.40
2022-11-06T12:12:02.931Z,45.30
2022-11-06T12:14:27.182Z,45.40
2022-11-06T12:16:29.130Z,45.30
2022-11-06T12:18:45.157Z,45.30
2022-11-06T12:20:58.614Z,45.30
2022-11-06T12:23:02.048Z,45.30
2022-11-06T12:25:25.110Z,45.40
2022-11-06T12:27:33.319Z,45.40
2022-11-06T12:29:39.449Z,45.40
2022-11-06T12:31:55.202Z,45.40
2022-11-06T12:34:06.963Z,45.40
2022-11-06T12:36:12.638Z,45.40
2022-11-06T12:38:35.584Z,45.40
2022-11-06T12:40:57.194Z,45.40
2022-11-06T12:43:20.502Z,45.40
2022-11-06T12:45:29.266Z,45.40
2022-11-06T12:48:10.367Z,45.40
2022-11-06T12:50:29.076Z,45.40
2022-11-06T12:53:06.499Z,45.40
2022-11-06T12:55:29.576Z,45.40
2022-11-06T12:58:03.777Z,45.40
2022-11-06T13:00:16.775Z,45.40
2022-11-06T13:02:36.248Z,45.50
2022-11-06T13:05:12.366Z,45.60
2022-11-06T13:07:34.567Z,45.50
2022-11-06T13:10:09.392Z,45.50
2022-11-06T13:12:38.785Z,45.50
2022-11-06T13:15:24.741Z,45.50
2022-11-06T13:17:51.531Z,45.50
2022-11-06T13:19:59.014Z,45.50
2022-11-06T13:22:15.555Z,45.50
2022-11-06T13:24:39.948Z,45.60
2022-11-06T13:26:47.569Z,46.10
2022-11-06T13:28:58.499Z,45.50
2022-11-06T13:31:03.446Z,45.50
2022-11-06T13:33:10.561Z,45.50
2022-11-06T13:35:19.396Z,45.50
2022-11-06T13:37:40.980Z,45.50
2022-11-06T13:39:55.017Z,45.50
2022-11-06T13:41:57.716Z,45.40
2022-11-06T13:43:59.262Z,45.40
2022-11-06T13:46:24.343Z,45.40
2022-11-06T13:48:36.080Z,45.40
2022-11-06T13:50:56.662Z,46.00
2022-11-06T13:53:05.485Z,45.40
2022-11-06T13:55:30.009Z,45.30
2022-11-06T13:57:57.688Z,45.30
2022-11-06T14:00:37.173Z,45.30
2022-11-06T14:02:57.551Z,45.20
2022-11-06T14:05:04.961Z,45.10
2022-11-06T14:07:09.146Z,45.20
2022-11-06T14:09:20.410Z,45.20
2022-11-06T14:11:32.910Z,45.20
2022-11-06T14:13:35.636Z,45.10
2022-11-06T14:15:41.590Z,45.20
2022-11-06T14:17:57.675Z,45.10
2022-11-06T14:20:06.835Z,45.10
2022-11-06T14:22:08.379Z,45.00
2022-11-06T14:24:28.243Z,45.10
2022-11-06T14:26:47.694Z,45.70
2022-11-06T14:28:49.339Z,45.00
2022-11-06T14:31:11.742Z,45.00
2022-11-06T14:33:44.652Z,45.00
2022-11-06T14:35:46.507Z,44.90
2022-11-06T14:37:48.966Z,44.90
2022-11-06T14:39:56.849Z,44.90
2022-11-06T14:41:59.756Z,44.90
2022-11-06T14:44:05.827Z,44.90
2022-11-06T14:46:23.598Z,44.90
2022-11-06T14:48:31.473Z,44.90
2022-11-06T14:50:48.638Z,44.90
2022-11-06T14:52:55.756Z,45.50
2022-11-06T14:55:05.413Z,44.90
2022-11-06T14:57:14.347Z,44.90
2022-11-06T14:59:22.517Z,44.80
2022-11-06T15:01:34.129Z,44.90
2022-11-06T15:03:49.362Z,44.90
2022-11-06T15:05:59.546Z,44.80
2022-11-06T15:08:15.043Z,44.90
2022-11-06T15:10:44.606Z,44.80
2022-11-06T15:13:05.112Z,44.80
2022-11-06T15:15:16.727Z,44.80
2022-11-06T15:17:21.067Z,44.80
2022-11-06T15:19:27.426Z,44.80
2022-11-06T15:21:42.368Z,44.80
2022-11-06T15:24:06.987Z,44.80
2022-11-06T15:26:32.164Z,44.80
2022-11-06T15:28:47.405Z,44.80
2022-11-06T15:31:17.582Z,44.80
2022-11-06T15:33:28.234Z,44.90
2022-11-06T15:35:34.586Z,44.80
2022-11-06T15:37:42.423Z,44.70
2022-11-06T15:39:54.671Z,44.80
2022-11-06T15:41:59.712Z,44.80
2022-11-06T15:44:02.662Z,44.70
2022-11-06T15:46:17.882Z,44.70
2022-11-06T15:48:23.369Z,44.70
2022-11-06T15:50:29.809Z,44.70
2022-11-06T15:52:32.877Z,44.70
2022-11-06T15:54:39.720Z,44.70
2022-11-06T15:56:42.323Z,44.70
2022-11-06T15:58:44.018Z,45.40
2022-11-06T16:00:46.240Z,44.70
2022-11-06T16:03:00.628Z,44.70
2022-11-06T16:05:03.280Z,44.70
2022-11-06T16:07:06.030Z,44.60
2022-11-06T16:09:16.735Z,44.60
2022-11-06T16:11:20.406Z,44.70
2022-11-06T16:13:25.037Z,44.60
2022-11-06T16:15:44.142Z,44.60
2022-11-06T16:17:46.384Z,44.60
2022-11-06T16:19:48.983Z,44.50
2022-11-06T16:22:04.019Z,44.60
2022-11-06T16:24:12.428Z,44.60
2022-11-06T16:26:21.635Z,44.50
2022-11-06T16:28:24.453Z,44.50
2022-11-06T16:30:26.180Z,45.20
2022-11-06T16:32:30.821Z,44.50
2022-11-06T16:34:37.401Z,44.50
2022-11-06T16:36:58.038Z,44.50
2022-11-06T16:39:17.659Z,44.50
2022-11-06T16:41:39.652Z,44.50
2022-11-06T16:43:41.538Z,44.50
2022-11-06T16:46:01.159Z,44.50
2022-11-06T16:48:05.797Z,45.10
2022-11-06T16:50:46.479Z,44.60
2022-11-06T16:52:53.417Z,44.60
2022-11-06T16:55:05.102Z,44.70
2022-11-06T16:57:13.790Z,45.10
2022-11-06T16:59:22.931Z,45.00
2022-11-06T17:01:24.978Z,45.10
2022-11-06T17:03:31.316Z,45.20
2022-11-06T17:05:38.274Z,45.70
2022-11-06T17:07:40.950Z,46.10
2022-11-06T17:09:42.715Z,46.50
2022-11-06T17:11:44.341Z,46.60
2022-11-06T17:13:46.417Z,46.70
2022-11-06T17:15:53.831Z,46.70
2022-11-06T17:17:55.458Z,46.80
2022-11-06T17:19:57.133Z,46.90
2022-11-06T17:21:58.971Z,46.90
2022-11-06T17:24:12.167Z,46.80
2022-11-06T17:26:30.612Z,46.80
2022-11-06T17:28:32.329Z,46.80
2022-11-06T17:30:33.907Z,46.70
2022-11-06T17:32:35.493Z,46.60
2022-11-06T17:34:37.154Z,46.60
2022-11-06T17:36:39.325Z,46.50
2022-11-06T17:38:40.980Z,46.50
2022-11-06T17:40:43.903Z,46.50
2022-11-06T17:42:45.485Z,46.50
2022-11-06T17:44:47.198Z,46.30
2022-11-06T17:46:49.411Z,46.40
2022-11-06T17:48:50.991Z,46.30
2022-11-06T17:51:12.779Z,46.40
2022-11-06T17:53:14.665Z,46.30
2022-11-06T17:55:16.786Z,46.30
2022-11-06T17:57:23.740Z,46.30
2022-11-06T17:59:26.204Z,46.30
2022-11-06T18:01:27.897Z,46.30
2022-11-06T18:03:35.305Z,46.40
2022-11-06T18:05:41.417Z,46.30
2022-11-06T18:07:43.007Z,46.40
2022-11-06T18:09:44.795Z,46.30
2022-11-06T18:11:49.780Z,46.30
2022-11-06T18:13:51.647Z,46.40
2022-11-06T18:15:53.411Z,47.20
2022-11-06T18:17:55.017Z,46.30
2022-11-06T18:19:56.693Z,46.40
2022-11-06T18:22:03.951Z,46.30
2022-11-06T18:24:08.362Z,46.30
2022-11-06T18:26:09.982Z,46.20
2022-11-06T18:28:11.684Z,46.30
2022-11-06T18:30:13.631Z,46.20
2022-11-06T18:32:15.286Z,46.20
2022-11-06T18:34:21.103Z,46.10
2022-11-06T18:36:23.251Z,46.10
2022-11-06T18:38:24.884Z,46.10
2022-11-06T18:40:26.629Z,46.00
2022-11-06T18:42:28.285Z,46.10
2022-11-06T18:44:29.942Z,46.00
2022-11-06T18:46:31.680Z,46.00
2022-11-06T18:48:33.733Z,46.00
2022-11-06T18:50:36.259Z,46.00
2022-11-06T18:52:57.008Z,45.90
2022-11-06T18:55:00.958Z,45.90
2022-11-06T18:57:02.791Z,45.90
2022-11-06T18:59:12.295Z,45.90
2022-11-06T19:01:17.346Z,45.80
2022-11-06T19:03:19.057Z,45.80
2022-11-06T19:05:20.767Z,45.90
2022-11-06T19:07:22.437Z,45.90
2022-11-06T19:09:24.109Z,46.00
2022-11-06T19:11:25.950Z,45.90
2022-11-06T19:13:27.566Z,45.80
2022-11-06T19:15:29.211Z,45.80
2022-11-06T19:17:30.909Z,45.80
2022-11-06T19:19:32.522Z,45.70
2022-11-06T19:21:34.704Z,45.70
2022-11-06T19:23:38.588Z,45.60
2022-11-06T19:25:41.518Z,45.50
2022-11-06T19:27:43.197Z,45.60
2022-11-06T19:29:44.838Z,45.60
2022-11-06T19:31:46.512Z,45.50
2022-11-06T19:33:48.142Z,45.50
2022-11-06T19:35:49.767Z,45.50
2022-11-06T19:37:52.058Z,45.50
2022-11-06T19:39:53.662Z,45.50
2022-11-06T19:41:55.469Z,45.50
2022-11-06T19:43:57.115Z,45.50
2022-11-06T19:46:03.165Z,45.50
2022-11-06T19:48:05.233Z,45.50
2022-11-06T19:50:07.402Z,45.50
2022-11-06T19:52:42.101Z,45.50
2022-11-06T19:54:30.582Z,45.50
2022-11-06T19:56:32.238Z,45.50
2022-11-06T19:58:35.333Z,45.40
2022-11-06T20:00:38.961Z,45.40
2022-11-06T20:02:40.655Z,45.40
2022-11-06T20:04:42.576Z,45.40
2022-11-06T20:06:44.183Z,45.40
2022-11-06T20:08:50.174Z,45.40
2022-11-06T20:10:52.378Z,45.30
2022-11-06T20:12:53.980Z,45.30
2022-11-06T20:14:55.590Z,45.30
2022-11-06T20:16:57.475Z,45.20
2022-11-06T20:18:59.568Z,45.30
2022-11-06T20:21:03.980Z,45.20
2022-11-06T20:23:05.590Z,45.30
2022-11-06T20:25:07.460Z,45.20
2022-11-06T20:27:11.526Z,45.20
2022-11-06T20:29:13.425Z,45.10
2022-11-06T20:31:18.446Z,45.10
2022-11-06T20:33:20.165Z,45.20
2022-11-06T20:35:21.829Z,45.10
2022-11-06T20:37:23.515Z,45.10
2022-11-06T20:39:25.222Z,45.10
2022-11-06T20:41:28.087Z,45.10
2022-11-06T20:43:30.264Z,45.00
2022-11-06T20:45:36.928Z,45.00
2022-11-06T20:47:38.562Z,45.00
2022-11-06T20:49:40.560Z,45.00
2022-11-06T20:52:11.607Z,45.00
2022-11-06T20:54:04.056Z,44.90
2022-11-06T20:56:08.502Z,44.90
2022-11-06T20:58:10.123Z,44.90
2022-11-06T21:00:12.468Z,44.90
2022-11-06T21:02:14.349Z,44.80
2022-11-06T21:04:16.184Z,44.90
2022-11-06T21:06:20.008Z,45.10
2022-11-06T21:08:21.599Z,45.00
2022-11-06T21:10:23.288Z,45.70
2022-11-06T21:12:25.016Z,45.00
2022-11-06T21:14:26.622Z,45.00
2022-11-06T21:16:31.226Z,45.00
2022-11-06T21:18:36.362Z,45.00
2022-11-06T21:20:38.424Z,45.00
2022-11-06T21:22:40.051Z,44.90
2022-11-06T21:24:41.643Z,44.90
2022-11-06T21:26:43.237Z,45.00
2022-11-06T21:28:45.042Z,45.00
2022-11-06T21:30:48.217Z,45.00
2022-11-06T21:32:49.802Z,44.90
2022-11-06T21:34:51.411Z,44.90
2022-11-06T21:36:55.778Z,44.90
2022-11-06T21:39:02.584Z,44.90
2022-11-06T21:41:08.594Z,45.00
2022-11-06T21:43:10.315Z,45.10
2022-11-06T21:45:14.815Z,45.20
2022-11-06T21:47:16.697Z,45.20
2022-11-06T21:49:18.297Z,45.10
2022-11-06T21:51:26.534Z,45.30
2022-11-06T21:53:46.678Z,45.40
2022-11-06T21:56:00.518Z,45.20
2022-11-06T21:58:02.453Z,45.20
2022-11-06T22:00:04.407Z,45.30
2022-11-06T22:02:06.547Z,45.40
2022-11-06T22:04:08.850Z,45.50
2022-11-06T22:06:14.102Z,45.70
2022-11-06T22:08:16.023Z,45.70
2022-11-06T22:10:17.919Z,45.70
2022-11-06T22:12:19.519Z,45.90
2022-11-06T22:14:21.294Z,46.00
2022-11-06T22:16:28.511Z,45.90
2022-11-06T22:18:30.210Z,46.10
2022-11-06T22:20:32.034Z,46.10
2022-11-06T22:22:33.644Z,46.10
2022-11-06T22:24:35.353Z,46.30
2022-11-06T22:26:37.697Z,46.40
2022-11-06T22:28:39.768Z,46.50
2022-11-06T22:30:41.373Z,46.50
2022-11-06T22:32:42.955Z,46.60
2022-11-06T22:34:44.555Z,46.50
2022-11-06T22:36:46.172Z,46.60
2022-11-06T22:38:48.234Z,46.90
2022-11-06T22:41:00.750Z,47.00
2022-11-06T22:43:02.321Z,47.20
2022-11-06T22:45:04.375Z,47.40
2022-11-06T22:47:06.405Z,47.20
2022-11-06T22:49:08.067Z,47.60
2022-11-06T22:51:15.014Z,47.60
2022-11-06T22:53:16.910Z,47.70
2022-11-06T22:55:18.776Z,47.80
2022-11-06T22:57:20.398Z,47.80
2022-11-06T22:59:22.049Z,47.90
2022-11-06T23:01:25.249Z,48.00
2022-11-06T23:03:29.284Z,48.00
2022-11-06T23:05:31.635Z,47.90
2022-11-06T23:07:33.242Z,47.90
2022-11-06T23:09:34.853Z,47.90
2022-11-06T23:11:36.511Z,48.00
2022-11-06T23:13:38.907Z,48.00
2022-11-06T23:15:40.513Z,48.00
2022-11-06T23:17:42.168Z,48.00
2022-11-06T23:19:43.803Z,48.20
2022-11-06T23:21:45.476Z,48.20
2022-11-06T23:23:47.084Z,48.30
2022-11-06T23:25:48.665Z,48.40
2022-11-06T23:27:50.278Z,48.40
2022-11-06T23:29:52.176Z,48.40
2022-11-06T23:31:53.802Z,48.50
2022-11-06T23:33:56.217Z,48.40
2022-11-06T23:35:57.826Z,48.40
2022-11-06T23:37:59.614Z,48.50
2022-11-06T23:40:01.370Z,48.50
2022-11-06T23:42:02.982Z,48.40
2022-11-06T23:44:04.857Z,48.40
2022-11-06T23:46:06.484Z,48.40
2022-11-06T23:48:15.318Z,48.50
2022-11-06T23:50:17.623Z,48.40
2022-11-06T23:52:19.325Z,48.40
2022-11-06T23:54:21.025Z,48.60
2022-11-06T23:56:22.614Z,48.60
2022-11-06T23:58:24.338Z,48.80
